sensor_id;sensor_type;location;lat;lon;timestamp;P1;durP1;ratioP1;P2;durP2;ratioP2
26407;SDS011;14583;43.604;1.364;2023-02-28T00:01:54;6.82;;;4.97;;
26407;SDS011;14583;43.604;1.364;2023-02-28T00:04:20;12.25;;;5.25;;
26407;SDS011;14583;43.604;1.364;2023-02-28T00:06:46;7.75;;;4.90;;
26407;SDS011;14583;43.604;1.364;2023-02-28T00:09:11;7.00;;;4.68;;
26407;SDS011;14583;43.604;1.364;2023-02-28T00:11:47;6.95;;;4.70;;
26407;SDS011;14583;43.604;1.364;2023-02-28T00:14:35;8.50;;;4.97;;
26407;SDS011;14583;43.604;1.364;2023-02-28T00:17:01;10.52;;;5.68;;
26407;SDS011;14583;43.604;1.364;2023-02-28T00:19:39;7.03;;;5.25;;
26407;SDS011;14583;43.604;1.364;2023-02-28T00:22:11;6.32;;;4.90;;
26407;SDS011;14583;43.604;1.364;2023-02-28T00:24:37;8.70;;;5.53;;
26407;SDS011;14583;43.604;1.364;2023-02-28T00:27:03;8.35;;;5.15;;
26407;SDS011;14583;43.604;1.364;2023-02-28T00:29:29;8.32;;;5.35;;
26407;SDS011;14583;43.604;1.364;2023-02-28T00:31:54;8.27;;;5.13;;
26407;SDS011;14583;43.604;1.364;2023-02-28T00:34:20;7.15;;;5.18;;
26407;SDS011;14583;43.604;1.364;2023-02-28T00:36:46;8.88;;;4.90;;
26407;SDS011;14583;43.604;1.364;2023-02-28T00:39:14;8.20;;;5.05;;
26407;SDS011;14583;43.604;1.364;2023-02-28T00:42:00;10.52;;;5.15;;
26407;SDS011;14583;43.604;1.364;2023-02-28T00:44:27;9.18;;;5.35;;
26407;SDS011;14583;43.604;1.364;2023-02-28T00:46:53;9.80;;;5.15;;
26407;SDS011;14583;43.604;1.364;2023-02-28T00:49:19;8.10;;;5.22;;
26407;SDS011;14583;43.604;1.364;2023-02-28T00:51:46;10.48;;;5.47;;
26407;SDS011;14583;43.604;1.364;2023-02-28T00:54:12;9.88;;;5.13;;
26407;SDS011;14583;43.604;1.364;2023-02-28T00:56:37;8.07;;;5.47;;
26407;SDS011;14583;43.604;1.364;2023-02-28T00:59:29;12.02;;;5.32;;
26407;SDS011;14583;43.604;1.364;2023-02-28T01:01:55;9.23;;;5.53;;
26407;SDS011;14583;43.604;1.364;2023-02-28T01:04:20;6.82;;;4.85;;
26407;SDS011;14583;43.604;1.364;2023-02-28T01:06:46;7.95;;;5.35;;
26407;SDS011;14583;43.604;1.364;2023-02-28T01:09:12;9.75;;;5.47;;
26407;SDS011;14583;43.604;1.364;2023-02-28T01:11:38;12.80;;;5.57;;
26407;SDS011;14583;43.604;1.364;2023-02-28T01:14:06;7.07;;;5.15;;
26407;SDS011;14583;43.604;1.364;2023-02-28T01:16:33;6.38;;;4.88;;
26407;SDS011;14583;43.604;1.364;2023-02-28T01:18:59;7.88;;;5.47;;
26407;SDS011;14583;43.604;1.364;2023-02-28T01:21:24;6.00;;;5.40;;
26407;SDS011;14583;43.604;1.364;2023-02-28T01:23:50;8.05;;;5.97;;
26407;SDS011;14583;43.604;1.364;2023-02-28T01:26:17;8.95;;;5.55;;
26407;SDS011;14583;43.604;1.364;2023-02-28T01:28:55;7.57;;;5.75;;
26407;SDS011;14583;43.604;1.364;2023-02-28T01:31:33;7.90;;;5.50;;
26407;SDS011;14583;43.604;1.364;2023-02-28T01:33:59;7.60;;;5.50;;
26407;SDS011;14583;43.604;1.364;2023-02-28T01:36:25;8.50;;;5.57;;
26407;SDS011;14583;43.604;1.364;2023-02-28T01:38:51;8.40;;;5.70;;
26407;SDS011;14583;43.604;1.364;2023-02-28T01:41:18;9.63;;;5.35;;
26407;SDS011;14583;43.604;1.364;2023-02-28T01:44:07;7.75;;;5.60;;
26407;SDS011;14583;43.604;1.364;2023-02-28T01:47:13;11.73;;;6.30;;
26407;SDS011;14583;43.604;1.364;2023-02-28T01:49:47;10.05;;;6.05;;
26407;SDS011;14583;43.604;1.364;2023-02-28T01:52:14;8.57;;;5.88;;
26407;SDS011;14583;43.604;1.364;2023-02-28T01:54:43;9.15;;;5.82;;
26407;SDS011;14583;43.604;1.364;2023-02-28T01:57:16;13.07;;;6.35;;
26407;SDS011;14583;43.604;1.364;2023-02-28T01:59:47;8.55;;;5.78;;
26407;SDS011;14583;43.604;1.364;2023-02-28T02:02:23;6.85;;;5.05;;
26407;SDS011;14583;43.604;1.364;2023-02-28T02:05:12;9.07;;;5.68;;
26407;SDS011;14583;43.604;1.364;2023-02-28T02:07:55;7.10;;;5.50;;
26407;SDS011;14583;43.604;1.364;2023-02-28T02:10:31;7.85;;;5.90;;
26407;SDS011;14583;43.604;1.364;2023-02-28T02:15:56;8.65;;;5.95;;
26407;SDS011;14583;43.604;1.364;2023-02-28T02:26:56;8.77;;;5.75;;
26407;SDS011;14583;43.604;1.364;2023-02-28T02:29:47;8.50;;;5.75;;
26407;SDS011;14583;43.604;1.364;2023-02-28T02:38:42;9.65;;;5.72;;
26407;SDS011;14583;43.604;1.364;2023-02-28T02:41:39;7.13;;;5.72;;
26407;SDS011;14583;43.604;1.364;2023-02-28T02:47:10;11.15;;;6.28;;
26407;SDS011;14583;43.604;1.364;2023-02-28T02:49:46;9.48;;;6.85;;
26407;SDS011;14583;43.604;1.364;2023-02-28T02:52:16;10.88;;;6.20;;
26407;SDS011;14583;43.604;1.364;2023-02-28T02:55:16;10.85;;;6.60;;
26407;SDS011;14583;43.604;1.364;2023-02-28T02:57:53;9.93;;;6.43;;
26407;SDS011;14583;43.604;1.364;2023-02-28T03:00:36;9.20;;;6.22;;
26407;SDS011;14583;43.604;1.364;2023-02-28T03:03:04;10.95;;;7.15;;
26407;SDS011;14583;43.604;1.364;2023-02-28T03:05:44;9.00;;;6.70;;
26407;SDS011;14583;43.604;1.364;2023-02-28T03:08:13;9.63;;;6.47;;
26407;SDS011;14583;43.604;1.364;2023-02-28T03:10:43;10.00;;;6.13;;
26407;SDS011;14583;43.604;1.364;2023-02-28T03:27:27;8.80;;;6.47;;
26407;SDS011;14583;43.604;1.364;2023-02-28T03:30:10;10.43;;;6.72;;
26407;SDS011;14583;43.604;1.364;2023-02-28T03:32:58;8.27;;;6.57;;
26407;SDS011;14583;43.604;1.364;2023-02-28T03:35:33;13.57;;;7.28;;
26407;SDS011;14583;43.604;1.364;2023-02-28T03:38:13;10.05;;;6.57;;
26407;SDS011;14583;43.604;1.364;2023-02-28T03:40:50;11.23;;;7.40;;
26407;SDS011;14583;43.604;1.364;2023-02-28T03:43:25;11.50;;;7.00;;
26407;SDS011;14583;43.604;1.364;2023-02-28T03:46:05;10.68;;;6.97;;
26407;SDS011;14583;43.604;1.364;2023-02-28T03:48:36;9.77;;;7.15;;
26407;SDS011;14583;43.604;1.364;2023-02-28T03:51:24;12.68;;;6.63;;
26407;SDS011;14583;43.604;1.364;2023-02-28T03:53:53;9.90;;;6.97;;
26407;SDS011;14583;43.604;1.364;2023-02-28T03:59:45;9.98;;;6.63;;
26407;SDS011;14583;43.604;1.364;2023-02-28T04:02:17;12.27;;;7.35;;
26407;SDS011;14583;43.604;1.364;2023-02-28T04:04:43;9.77;;;6.60;;
26407;SDS011;14583;43.604;1.364;2023-02-28T04:07:10;9.35;;;7.10;;
26407;SDS011;14583;43.604;1.364;2023-02-28T04:09:37;10.13;;;7.15;;
26407;SDS011;14583;43.604;1.364;2023-02-28T04:12:03;11.77;;;6.60;;
26407;SDS011;14583;43.604;1.364;2023-02-28T04:14:29;9.40;;;6.55;;
26407;SDS011;14583;43.604;1.364;2023-02-28T04:16:55;8.65;;;6.40;;
26407;SDS011;14583;43.604;1.364;2023-02-28T04:19:21;11.25;;;6.63;;
26407;SDS011;14583;43.604;1.364;2023-02-28T04:21:47;12.02;;;6.40;;
26407;SDS011;14583;43.604;1.364;2023-02-28T04:24:18;13.70;;;6.90;;
26407;SDS011;14583;43.604;1.364;2023-02-28T04:26:54;9.60;;;6.85;;
26407;SDS011;14583;43.604;1.364;2023-02-28T04:29:23;10.60;;;6.68;;
26407;SDS011;14583;43.604;1.364;2023-02-28T04:31:52;10.73;;;6.85;;
26407;SDS011;14583;43.604;1.364;2023-02-28T04:34:18;12.63;;;7.70;;
26407;SDS011;14583;43.604;1.364;2023-02-28T04:36:46;10.30;;;7.40;;
26407;SDS011;14583;43.604;1.364;2023-02-28T04:39:14;10.48;;;6.75;;
26407;SDS011;14583;43.604;1.364;2023-02-28T04:41:40;10.82;;;7.15;;
26407;SDS011;14583;43.604;1.364;2023-02-28T04:44:06;11.75;;;7.50;;
26407;SDS011;14583;43.604;1.364;2023-02-28T04:46:32;12.80;;;7.32;;
26407;SDS011;14583;43.604;1.364;2023-02-28T04:48:57;11.73;;;7.38;;
26407;SDS011;14583;43.604;1.364;2023-02-28T04:51:24;9.82;;;6.82;;
26407;SDS011;14583;43.604;1.364;2023-02-28T04:53:50;11.55;;;7.88;;
26407;SDS011;14583;43.604;1.364;2023-02-28T04:56:16;10.80;;;7.30;;
26407;SDS011;14583;43.604;1.364;2023-02-28T04:58:42;11.10;;;7.70;;
26407;SDS011;14583;43.604;1.364;2023-02-28T05:01:20;13.38;;;7.55;;
26407;SDS011;14583;43.604;1.364;2023-02-28T05:03:55;13.15;;;7.78;;
26407;SDS011;14583;43.604;1.364;2023-02-28T05:06:22;11.65;;;7.00;;
26407;SDS011;14583;43.604;1.364;2023-02-28T05:08:50;11.30;;;7.45;;
26407;SDS011;14583;43.604;1.364;2023-02-28T05:11:18;10.07;;;6.85;;
26407;SDS011;14583;43.604;1.364;2023-02-28T05:13:46;13.30;;;8.00;;
26407;SDS011;14583;43.604;1.364;2023-02-28T05:16:12;10.43;;;6.72;;
26407;SDS011;14583;43.604;1.364;2023-02-28T05:18:38;9.93;;;7.32;;
26407;SDS011;14583;43.604;1.364;2023-02-28T05:21:04;11.48;;;7.43;;
26407;SDS011;14583;43.604;1.364;2023-02-28T05:23:30;10.77;;;7.80;;
26407;SDS011;14583;43.604;1.364;2023-02-28T05:25:56;13.20;;;7.82;;
26407;SDS011;14583;43.604;1.364;2023-02-28T05:28:22;15.80;;;8.57;;
26407;SDS011;14583;43.604;1.364;2023-02-28T05:30:48;11.63;;;8.23;;
26407;SDS011;14583;43.604;1.364;2023-02-28T05:33:13;13.90;;;8.63;;
26407;SDS011;14583;43.604;1.364;2023-02-28T05:35:40;10.25;;;7.68;;
26407;SDS011;14583;43.604;1.364;2023-02-28T05:38:08;10.73;;;8.32;;
26407;SDS011;14583;43.604;1.364;2023-02-28T05:40:34;13.10;;;8.98;;
26407;SDS011;14583;43.604;1.364;2023-02-28T05:43:00;13.75;;;9.30;;
26407;SDS011;14583;43.604;1.364;2023-02-28T05:45:25;17.38;;;9.75;;
26407;SDS011;14583;43.604;1.364;2023-02-28T05:47:54;12.15;;;9.40;;
26407;SDS011;14583;43.604;1.364;2023-02-28T05:50:20;12.40;;;8.90;;
26407;SDS011;14583;43.604;1.364;2023-02-28T05:52:53;13.63;;;9.88;;
26407;SDS011;14583;43.604;1.364;2023-02-28T05:55:18;15.48;;;9.50;;
26407;SDS011;14583;43.604;1.364;2023-02-28T05:57:44;17.17;;;9.75;;
26407;SDS011;14583;43.604;1.364;2023-02-28T06:00:10;14.40;;;9.80;;
26407;SDS011;14583;43.604;1.364;2023-02-28T06:02:38;16.02;;;10.73;;
26407;SDS011;14583;43.604;1.364;2023-02-28T06:05:05;13.63;;;9.65;;
26407;SDS011;14583;43.604;1.364;2023-02-28T06:07:33;15.90;;;9.27;;
26407;SDS011;14583;43.604;1.364;2023-02-28T06:09:58;12.65;;;9.15;;
26407;SDS011;14583;43.604;1.364;2023-02-28T06:12:24;16.17;;;9.20;;
26407;SDS011;14583;43.604;1.364;2023-02-28T06:14:50;13.27;;;9.57;;
26407;SDS011;14583;43.604;1.364;2023-02-28T06:17:16;13.85;;;9.45;;
26407;SDS011;14583;43.604;1.364;2023-02-28T06:19:41;16.15;;;9.02;;
26407;SDS011;14583;43.604;1.364;2023-02-28T06:22:07;17.38;;;9.88;;
26407;SDS011;14583;43.604;1.364;2023-02-28T06:24:33;15.75;;;10.18;;
26407;SDS011;14583;43.604;1.364;2023-02-28T06:26:58;14.88;;;9.55;;
26407;SDS011;14583;43.604;1.364;2023-02-28T06:29:30;15.65;;;9.73;;
26407;SDS011;14583;43.604;1.364;2023-02-28T06:31:59;15.38;;;9.90;;
26407;SDS011;14583;43.604;1.364;2023-02-28T06:34:25;14.35;;;9.73;;
26407;SDS011;14583;43.604;1.364;2023-02-28T06:36:51;14.13;;;9.63;;
26407;SDS011;14583;43.604;1.364;2023-02-28T06:39:17;15.75;;;9.95;;
26407;SDS011;14583;43.604;1.364;2023-02-28T06:41:42;15.15;;;9.80;;
26407;SDS011;14583;43.604;1.364;2023-02-28T06:44:17;19.15;;;9.82;;
26407;SDS011;14583;43.604;1.364;2023-02-28T06:46:43;14.35;;;10.10;;
26407;SDS011;14583;43.604;1.364;2023-02-28T06:49:10;13.40;;;9.75;;
26407;SDS011;14583;43.604;1.364;2023-02-28T06:51:37;13.43;;;10.57;;
26407;SDS011;14583;43.604;1.364;2023-02-28T06:54:05;15.45;;;10.07;;
26407;SDS011;14583;43.604;1.364;2023-02-28T06:56:34;14.65;;;10.45;;
26407;SDS011;14583;43.604;1.364;2023-02-28T06:59:00;15.45;;;10.73;;
26407;SDS011;14583;43.604;1.364;2023-02-28T07:01:26;13.80;;;10.15;;
26407;SDS011;14583;43.604;1.364;2023-02-28T07:03:53;14.13;;;10.18;;
26407;SDS011;14583;43.604;1.364;2023-02-28T07:06:20;21.95;;;10.85;;
26407;SDS011;14583;43.604;1.364;2023-02-28T07:08:48;24.10;;;11.75;;
26407;SDS011;14583;43.604;1.364;2023-02-28T07:11:14;19.58;;;11.05;;
26407;SDS011;14583;43.604;1.364;2023-02-28T07:13:40;17.80;;;10.38;;
26407;SDS011;14583;43.604;1.364;2023-02-28T07:16:08;16.90;;;10.45;;
26407;SDS011;14583;43.604;1.364;2023-02-28T07:18:37;16.85;;;10.23;;
26407;SDS011;14583;43.604;1.364;2023-02-28T07:21:04;15.30;;;9.70;;
26407;SDS011;14583;43.604;1.364;2023-02-28T07:23:31;16.88;;;10.80;;
26407;SDS011;14583;43.604;1.364;2023-02-28T07:25:57;16.58;;;10.38;;
26407;SDS011;14583;43.604;1.364;2023-02-28T07:28:23;16.02;;;10.25;;
26407;SDS011;14583;43.604;1.364;2023-02-28T07:30:48;12.18;;;9.95;;
26407;SDS011;14583;43.604;1.364;2023-02-28T07:33:14;17.90;;;10.27;;
26407;SDS011;14583;43.604;1.364;2023-02-28T07:35:40;16.30;;;10.27;;
26407;SDS011;14583;43.604;1.364;2023-02-28T07:38:06;18.15;;;11.10;;
26407;SDS011;14583;43.604;1.364;2023-02-28T07:40:35;18.45;;;10.82;;
26407;SDS011;14583;43.604;1.364;2023-02-28T07:43:01;19.02;;;11.45;;
26407;SDS011;14583;43.604;1.364;2023-02-28T07:45:28;16.13;;;11.02;;
26407;SDS011;14583;43.604;1.364;2023-02-28T07:47:55;17.65;;;11.50;;
26407;SDS011;14583;43.604;1.364;2023-02-28T07:50:21;16.13;;;11.43;;
26407;SDS011;14583;43.604;1.364;2023-02-28T07:52:47;18.55;;;10.57;;
26407;SDS011;14583;43.604;1.364;2023-02-28T07:55:13;15.27;;;9.43;;
26407;SDS011;14583;43.604;1.364;2023-02-28T07:57:39;15.40;;;9.43;;
26407;SDS011;14583;43.604;1.364;2023-02-28T08:00:06;15.82;;;10.52;;
26407;SDS011;14583;43.604;1.364;2023-02-28T08:02:34;16.02;;;9.23;;
26407;SDS011;14583;43.604;1.364;2023-02-28T08:05:01;21.73;;;10.50;;
26407;SDS011;14583;43.604;1.364;2023-02-28T08:07:26;19.30;;;10.43;;
26407;SDS011;14583;43.604;1.364;2023-02-28T08:09:52;15.73;;;10.05;;
26407;SDS011;14583;43.604;1.364;2023-02-28T08:12:18;12.85;;;8.68;;
26407;SDS011;14583;43.604;1.364;2023-02-28T08:14:44;14.10;;;9.18;;
26407;SDS011;14583;43.604;1.364;2023-02-28T08:17:10;14.65;;;8.88;;
26407;SDS011;14583;43.604;1.364;2023-02-28T08:19:36;16.85;;;8.73;;
26407;SDS011;14583;43.604;1.364;2023-02-28T08:22:02;14.52;;;9.07;;
26407;SDS011;14583;43.604;1.364;2023-02-28T08:24:28;13.45;;;7.70;;
26407;SDS011;14583;43.604;1.364;2023-02-28T08:26:54;12.80;;;8.18;;
26407;SDS011;14583;43.604;1.364;2023-02-28T08:29:20;15.20;;;7.78;;
26407;SDS011;14583;43.604;1.364;2023-02-28T08:31:46;10.50;;;7.07;;
26407;SDS011;14583;43.604;1.364;2023-02-28T08:34:13;10.68;;;7.05;;
26407;SDS011;14583;43.604;1.364;2023-02-28T08:36:40;13.05;;;6.82;;
26407;SDS011;14583;43.604;1.364;2023-02-28T08:39:06;10.93;;;7.70;;
26407;SDS011;14583;43.604;1.364;2023-02-28T08:41:32;10.02;;;7.15;;
26407;SDS011;14583;43.604;1.364;2023-02-28T08:43:58;11.00;;;8.05;;
26407;SDS011;14583;43.604;1.364;2023-02-28T08:46:25;11.27;;;7.10;;
26407;SDS011;14583;43.604;1.364;2023-02-28T08:48:51;11.20;;;7.13;;
26407;SDS011;14583;43.604;1.364;2023-02-28T08:51:18;12.82;;;7.43;;
26407;SDS011;14583;43.604;1.364;2023-02-28T08:53:51;10.63;;;7.40;;
26407;SDS011;14583;43.604;1.364;2023-02-28T08:56:17;11.02;;;7.57;;
26407;SDS011;14583;43.604;1.364;2023-02-28T08:58:44;9.80;;;7.47;;
26407;SDS011;14583;43.604;1.364;2023-02-28T09:01:12;14.77;;;7.97;;
26407;SDS011;14583;43.604;1.364;2023-02-28T09:03:43;13.18;;;7.75;;
26407;SDS011;14583;43.604;1.364;2023-02-28T09:06:10;11.52;;;7.70;;
26407;SDS011;14583;43.604;1.364;2023-02-28T09:08:36;14.63;;;6.88;;
26407;SDS011;14583;43.604;1.364;2023-02-28T09:11:02;10.65;;;7.40;;
26407;SDS011;14583;43.604;1.364;2023-02-28T09:13:28;11.95;;;7.20;;
26407;SDS011;14583;43.604;1.364;2023-02-28T09:15:56;10.45;;;7.03;;
26407;SDS011;14583;43.604;1.364;2023-02-28T09:18:23;8.45;;;6.60;;
26407;SDS011;14583;43.604;1.364;2023-02-28T09:20:49;13.50;;;6.93;;
26407;SDS011;14583;43.604;1.364;2023-02-28T09:23:15;10.45;;;6.90;;
26407;SDS011;14583;43.604;1.364;2023-02-28T09:25:45;11.95;;;7.38;;
26407;SDS011;14583;43.604;1.364;2023-02-28T09:28:12;10.43;;;6.75;;
26407;SDS011;14583;43.604;1.364;2023-02-28T09:30:40;12.90;;;7.53;;
26407;SDS011;14583;43.604;1.364;2023-02-28T09:33:06;11.88;;;7.18;;
26407;SDS011;14583;43.604;1.364;2023-02-28T09:35:32;10.02;;;7.32;;
26407;SDS011;14583;43.604;1.364;2023-02-28T09:37:58;11.60;;;6.75;;
26407;SDS011;14583;43.604;1.364;2023-02-28T09:40:24;9.38;;;7.05;;
26407;SDS011;14583;43.604;1.364;2023-02-28T09:42:52;9.63;;;6.80;;
26407;SDS011;14583;43.604;1.364;2023-02-28T09:45:32;16.23;;;7.88;;
26407;SDS011;14583;43.604;1.364;2023-02-28T09:48:03;11.57;;;7.55;;
26407;SDS011;14583;43.604;1.364;2023-02-28T09:50:40;13.15;;;7.30;;
26407;SDS011;14583;43.604;1.364;2023-02-28T09:53:28;13.60;;;7.25;;
26407;SDS011;14583;43.604;1.364;2023-02-28T09:56:04;9.30;;;6.75;;
26407;SDS011;14583;43.604;1.364;2023-02-28T09:58:49;8.93;;;6.80;;
26407;SDS011;14583;43.604;1.364;2023-02-28T10:01:37;10.25;;;7.13;;
26407;SDS011;14583;43.604;1.364;2023-02-28T10:04:16;9.65;;;6.78;;
26407;SDS011;14583;43.604;1.364;2023-02-28T10:06:46;9.80;;;6.63;;
26407;SDS011;14583;43.604;1.364;2023-02-28T10:09:21;10.35;;;6.55;;
26407;SDS011;14583;43.604;1.364;2023-02-28T10:11:53;11.52;;;7.35;;
26407;SDS011;14583;43.604;1.364;2023-02-28T10:14:26;10.80;;;6.97;;
26407;SDS011;14583;43.604;1.364;2023-02-28T10:16:55;10.90;;;7.30;;
26407;SDS011;14583;43.604;1.364;2023-02-28T10:19:31;9.02;;;7.07;;
26407;SDS011;14583;43.604;1.364;2023-02-28T10:22:19;11.65;;;7.10;;
26407;SDS011;14583;43.604;1.364;2023-02-28T10:24:50;12.93;;;7.88;;
26407;SDS011;14583;43.604;1.364;2023-02-28T10:27:24;11.60;;;7.38;;
26407;SDS011;14583;43.604;1.364;2023-02-28T10:30:00;8.23;;;6.82;;
26407;SDS011;14583;43.604;1.364;2023-02-28T10:32:33;10.65;;;6.00;;
26407;SDS011;14583;43.604;1.364;2023-02-28T10:37:30;10.77;;;7.05;;
26407;SDS011;14583;43.604;1.364;2023-02-28T10:42:30;10.98;;;7.30;;
26407;SDS011;14583;43.604;1.364;2023-02-28T10:47:31;9.52;;;7.10;;
26407;SDS011;14583;43.604;1.364;2023-02-28T10:50:00;10.27;;;7.03;;
26407;SDS011;14583;43.604;1.364;2023-02-28T10:52:36;12.85;;;7.70;;
26407;SDS011;14583;43.604;1.364;2023-02-28T10:55:24;10.77;;;7.68;;
26407;SDS011;14583;43.604;1.364;2023-02-28T10:57:51;11.32;;;7.57;;
26407;SDS011;14583;43.604;1.364;2023-02-28T11:00:19;12.23;;;7.82;;
26407;SDS011;14583;43.604;1.364;2023-02-28T11:02:50;11.55;;;7.50;;
26407;SDS011;14583;43.604;1.364;2023-02-28T11:05:27;11.55;;;7.45;;
26407;SDS011;14583;43.604;1.364;2023-02-28T11:07:59;10.95;;;7.60;;
26407;SDS011;14583;43.604;1.364;2023-02-28T11:10:36;11.20;;;7.45;;
26407;SDS011;14583;43.604;1.364;2023-02-28T11:13:02;12.18;;;8.05;;
26407;SDS011;14583;43.604;1.364;2023-02-28T11:15:32;10.32;;;7.28;;
26407;SDS011;14583;43.604;1.364;2023-02-28T11:20:46;10.02;;;7.78;;
26407;SDS011;14583;43.604;1.364;2023-02-28T11:25:49;10.93;;;7.43;;
26407;SDS011;14583;43.604;1.364;2023-02-28T11:33:53;11.32;;;7.82;;
26407;SDS011;14583;43.604;1.364;2023-02-28T11:36:24;11.68;;;8.20;;
26407;SDS011;14583;43.604;1.364;2023-02-28T11:39:15;15.70;;;8.75;;
26407;SDS011;14583;43.604;1.364;2023-02-28T11:41:50;9.50;;;7.80;;
26407;SDS011;14583;43.604;1.364;2023-02-28T11:52:34;11.73;;;8.65;;
26407;SDS011;14583;43.604;1.364;2023-02-28T12:25:43;12.20;;;8.13;;
26407;SDS011;14583;43.604;1.364;2023-02-28T12:28:23;11.88;;;8.05;;
26407;SDS011;14583;43.604;1.364;2023-02-28T12:30:58;10.25;;;7.55;;
26407;SDS011;14583;43.604;1.364;2023-02-28T12:33:32;13.00;;;7.43;;
26407;SDS011;14583;43.604;1.364;2023-02-28T12:36:03;11.40;;;7.82;;
26407;SDS011;14583;43.604;1.364;2023-02-28T12:38:44;14.95;;;7.78;;
26407;SDS011;14583;43.604;1.364;2023-02-28T12:41:18;12.80;;;6.88;;
26407;SDS011;14583;43.604;1.364;2023-02-28T12:43:52;8.73;;;7.43;;
26407;SDS011;14583;43.604;1.364;2023-02-28T12:46:23;9.43;;;7.50;;
26407;SDS011;14583;43.604;1.364;2023-02-28T12:49:05;10.23;;;7.32;;
26407;SDS011;14583;43.604;1.364;2023-02-28T12:55:04;11.32;;;6.70;;
26407;SDS011;14583;43.604;1.364;2023-02-28T13:00:17;9.38;;;6.95;;
26407;SDS011;14583;43.604;1.364;2023-02-28T13:10:52;12.48;;;7.28;;
26407;SDS011;14583;43.604;1.364;2023-02-28T13:13:22;12.10;;;7.70;;
26407;SDS011;14583;43.604;1.364;2023-02-28T13:18:30;13.02;;;7.15;;
26407;SDS011;14583;43.604;1.364;2023-02-28T13:21:06;18.92;;;7.68;;
26407;SDS011;14583;43.604;1.364;2023-02-28T13:26:17;10.32;;;7.07;;
26407;SDS011;14583;43.604;1.364;2023-02-28T13:31:18;10.77;;;6.90;;
26407;SDS011;14583;43.604;1.364;2023-02-28T13:36:27;9.35;;;6.43;;
26407;SDS011;14583;43.604;1.364;2023-02-28T13:49:18;9.50;;;5.88;;
26407;SDS011;14583;43.604;1.364;2023-02-28T13:51:44;7.60;;;6.07;;
26407;SDS011;14583;43.604;1.364;2023-02-28T14:05:33;7.70;;;5.97;;
26407;SDS011;14583;43.604;1.364;2023-02-28T14:08:03;8.02;;;6.00;;
26407;SDS011;14583;43.604;1.364;2023-02-28T14:13:02;11.82;;;6.47;;
26407;SDS011;14583;43.604;1.364;2023-02-28T14:20:48;7.95;;;6.13;;
26407;SDS011;14583;43.604;1.364;2023-02-28T14:29:00;12.00;;;6.38;;
26407;SDS011;14583;43.604;1.364;2023-02-28T14:34:58;9.55;;;5.80;;
26407;SDS011;14583;43.604;1.364;2023-02-28T14:37:46;6.45;;;5.38;;
26407;SDS011;14583;43.604;1.364;2023-02-28T14:40:17;9.32;;;5.80;;
26407;SDS011;14583;43.604;1.364;2023-02-28T14:43:18;8.32;;;6.05;;
26407;SDS011;14583;43.604;1.364;2023-02-28T14:45:48;8.07;;;6.05;;
26407;SDS011;14583;43.604;1.364;2023-02-28T14:48:16;9.67;;;6.20;;
26407;SDS011;14583;43.604;1.364;2023-02-28T14:50:48;7.07;;;5.30;;
26407;SDS011;14583;43.604;1.364;2023-02-28T14:53:17;11.32;;;5.88;;
26407;SDS011;14583;43.604;1.364;2023-02-28T14:55:45;10.75;;;5.97;;
26407;SDS011;14583;43.604;1.364;2023-02-28T14:58:19;10.85;;;6.35;;
26407;SDS011;14583;43.604;1.364;2023-02-28T15:00:49;6.53;;;5.85;;
26407;SDS011;14583;43.604;1.364;2023-02-28T15:03:23;8.32;;;5.53;;
26407;SDS011;14583;43.604;1.364;2023-02-28T15:05:58;12.98;;;6.00;;
26407;SDS011;14583;43.604;1.364;2023-02-28T15:08:28;12.35;;;6.38;;
26407;SDS011;14583;43.604;1.364;2023-02-28T15:11:00;10.82;;;5.53;;
26407;SDS011;14583;43.604;1.364;2023-02-28T15:13:45;8.27;;;5.93;;
26407;SDS011;14583;43.604;1.364;2023-02-28T15:16:22;12.60;;;6.00;;
26407;SDS011;14583;43.604;1.364;2023-02-28T15:18:57;8.35;;;5.75;;
26407;SDS011;14583;43.604;1.364;2023-02-28T15:21:25;8.95;;;6.05;;
26407;SDS011;14583;43.604;1.364;2023-02-28T15:23:57;8.70;;;5.13;;
26407;SDS011;14583;43.604;1.364;2023-02-28T15:26:33;8.50;;;5.63;;
26407;SDS011;14583;43.604;1.364;2023-02-28T15:29:05;12.85;;;5.80;;
26407;SDS011;14583;43.604;1.364;2023-02-28T15:31:39;7.10;;;5.72;;
26407;SDS011;14583;43.604;1.364;2023-02-28T15:36:41;11.32;;;5.70;;
26407;SDS011;14583;43.604;1.364;2023-02-28T15:42:10;8.30;;;5.60;;
26407;SDS011;14583;43.604;1.364;2023-02-28T15:44:37;6.55;;;4.68;;
26407;SDS011;14583;43.604;1.364;2023-02-28T15:47:04;6.80;;;5.35;;
26407;SDS011;14583;43.604;1.364;2023-02-28T15:49:49;8.77;;;6.07;;
26407;SDS011;14583;43.604;1.364;2023-02-28T15:54:59;8.75;;;5.65;;
26407;SDS011;14583;43.604;1.364;2023-02-28T15:57:32;8.70;;;5.82;;
26407;SDS011;14583;43.604;1.364;2023-02-28T15:59:59;9.77;;;5.38;;
26407;SDS011;14583;43.604;1.364;2023-02-28T16:02:33;36.92;;;6.82;;
26407;SDS011;14583;43.604;1.364;2023-02-28T16:07:31;14.10;;;6.18;;
26407;SDS011;14583;43.604;1.364;2023-02-28T16:09:58;10.20;;;5.85;;
26407;SDS011;14583;43.604;1.364;2023-02-28T16:12:28;13.55;;;5.90;;
26407;SDS011;14583;43.604;1.364;2023-02-28T16:15:00;6.97;;;5.73;;
26407;SDS011;14583;43.604;1.364;2023-02-28T16:19:57;9.95;;;5.47;;
26407;SDS011;14583;43.604;1.364;2023-02-28T16:22:23;11.70;;;5.78;;
26407;SDS011;14583;43.604;1.364;2023-02-28T16:24:49;10.48;;;5.25;;
26407;SDS011;14583;43.604;1.364;2023-02-28T16:27:16;8.60;;;5.55;;
26407;SDS011;14583;43.604;1.364;2023-02-28T16:29:43;6.22;;;4.95;;
26407;SDS011;14583;43.604;1.364;2023-02-28T16:32:10;8.13;;;5.88;;
26407;SDS011;14583;43.604;1.364;2023-02-28T16:34:38;11.02;;;6.32;;
26407;SDS011;14583;43.604;1.364;2023-02-28T16:37:07;7.03;;;5.72;;
26407;SDS011;14583;43.604;1.364;2023-02-28T16:39:36;8.23;;;5.37;;
26407;SDS011;14583;43.604;1.364;2023-02-28T16:42:02;9.15;;;6.10;;
26407;SDS011;14583;43.604;1.364;2023-02-28T16:44:32;9.68;;;5.95;;
26407;SDS011;14583;43.604;1.364;2023-02-28T16:46:59;10.55;;;5.38;;
26407;SDS011;14583;43.604;1.364;2023-02-28T16:49:26;10.65;;;5.32;;
26407;SDS011;14583;43.604;1.364;2023-02-28T16:51:52;6.45;;;5.35;;
26407;SDS011;14583;43.604;1.364;2023-02-28T16:54:18;10.05;;;5.88;;
26407;SDS011;14583;43.604;1.364;2023-02-28T16:56:45;9.60;;;5.70;;
26407;SDS011;14583;43.604;1.364;2023-02-28T16:59:12;9.98;;;5.07;;
26407;SDS011;14583;43.604;1.364;2023-02-28T17:01:39;8.45;;;6.25;;
26407;SDS011;14583;43.604;1.364;2023-02-28T17:04:05;10.55;;;5.70;;
26407;SDS011;14583;43.604;1.364;2023-02-28T17:06:31;10.27;;;5.80;;
26407;SDS011;14583;43.604;1.364;2023-02-28T17:08:57;8.57;;;6.20;;
26407;SDS011;14583;43.604;1.364;2023-02-28T17:11:24;8.88;;;6.38;;
26407;SDS011;14583;43.604;1.364;2023-02-28T17:13:51;8.82;;;5.88;;
26407;SDS011;14583;43.604;1.364;2023-02-28T17:19:02;9.88;;;6.47;;
26407;SDS011;14583;43.604;1.364;2023-02-28T17:21:33;6.82;;;5.57;;
26407;SDS011;14583;43.604;1.364;2023-02-28T17:23:59;9.82;;;6.38;;
26407;SDS011;14583;43.604;1.364;2023-02-28T17:26:25;11.35;;;5.88;;
26407;SDS011;14583;43.604;1.364;2023-02-28T17:28:53;7.60;;;5.78;;
26407;SDS011;14583;43.604;1.364;2023-02-28T17:31:23;9.30;;;5.72;;
26407;SDS011;14583;43.604;1.364;2023-02-28T17:33:49;11.65;;;6.28;;
26407;SDS011;14583;43.604;1.364;2023-02-28T17:36:16;7.82;;;6.07;;
26407;SDS011;14583;43.604;1.364;2023-02-28T17:38:47;10.88;;;7.18;;
26407;SDS011;14583;43.604;1.364;2023-02-28T17:41:13;12.30;;;6.20;;
26407;SDS011;14583;43.604;1.364;2023-02-28T17:43:40;9.15;;;6.20;;
26407;SDS011;14583;43.604;1.364;2023-02-28T17:46:08;10.20;;;6.35;;
26407;SDS011;14583;43.604;1.364;2023-02-28T17:48:43;8.98;;;5.95;;
26407;SDS011;14583;43.604;1.364;2023-02-28T17:51:10;7.70;;;5.55;;